Time;durP1;ratioP1;P1;durP2;ratioP2;P2;SDS_P1;SDS_P2;PMS_P1;PMS_P2;Temp;Humidity;BMP_temperature;BMP_pressure;BME280_temperature;BME280_humidity;BME280_pressure;Samples;Min_cycle;Max_cycle;Signal;HPM_P1;HPM_P2
2023/07/18 00:00:17;;;;;;;6.55;2.63;;;;;;;-144.73;100.00;54385.13;5067787;28;20111;-74
2023/07/18 00:02:46;;;;;;;7.45;2.83;;;;;;;-144.73;100.00;54411.81;5068835;28;20055;-74
2023/07/18 00:05:12;;;;;;;9.73;2.95;;;;;;;-144.73;100.00;54415.91;5069148;28;20031;-74
2023/07/18 00:07:41;;;;;;;6.90;3.35;;;;;;;-144.73;100.00;54391.28;5067828;28;20119;-74
2023/07/18 00:10:11;;;;;;;8.82;3.38;;;;;;;-144.73;100.00;54440.53;5067546;28;20031;-74
2023/07/18 00:12:38;;;;;;;18.17;3.63;;;;;;;-144.73;100.00;54432.31;5068687;28;20032;-74
2023/07/18 00:15:06;;;;;;;12.38;3.60;;;;;;;-144.73;100.00;54387.19;5071733;28;20032;-74
2023/07/18 00:17:32;;;;;;;10.60;3.80;;;;;;;-144.73;100.00;54407.69;5069204;28;20050;-74
2023/07/18 00:19:58;;;;;;;6.53;3.47;;;;;;;-144.73;100.00;54444.66;5064199;28;20027;-74
2023/07/18 00:22:24;;;;;;;12.65;3.55;;;;;;;-144.73;100.00;54407.69;5081472;28;20640;-74
2023/07/18 00:24:49;;;;;;;18.58;3.72;;;;;;;-144.73;100.00;54407.69;5067068;28;20027;-74
2023/07/18 00:27:16;;;;;;;8.32;3.70;;;;;;;-144.73;100.00;54395.38;5053037;28;20020;-74
2023/07/18 00:29:42;;;;;;;13.13;4.47;;;;;;;-144.73;100.00;54395.38;5061162;28;20482;-74
2023/07/18 00:32:08;;;;;;;13.88;3.63;;;;;;;-144.73;100.00;54395.38;5065001;28;20027;-74
2023/07/18 00:34:33;;;;;;;18.98;4.78;;;;;;;-144.73;100.00;54391.28;5057883;28;20491;-74
2023/07/18 00:36:59;;;;;;;10.02;3.67;;;;;;;-144.73;100.00;54391.28;5064659;28;20081;-74
2023/07/18 00:39:24;;;;;;;10.98;3.83;;;;;;;-144.73;100.00;54436.44;5078694;28;20035;-74
2023/07/18 00:41:52;;;;;;;12.27;3.95;;;;;;;-144.73;100.00;54387.19;5062645;28;20020;-74
2023/07/18 00:44:17;;;;;;;12.60;4.20;;;;;;;-144.73;100.00;54440.53;5050420;28;20059;-74
2023/07/18 00:46:43;;;;;;;14.30;4.60;;;;;;;-144.73;100.00;54415.91;5083822;28;20040;-74
2023/07/18 00:49:09;;;;;;;11.60;4.22;;;;;;;-144.73;100.00;54420.00;5051455;28;20032;-74
2023/07/18 00:51:35;;;;;;;16.77;4.88;;;;;;;-144.73;100.00;54391.28;5069770;28;20099;-74
2023/07/18 00:54:01;;;;;;;11.48;4.00;;;;;;;-144.73;100.00;54354.34;5086055;28;20081;-73
2023/07/18 00:56:27;;;;;;;10.10;4.38;;;;;;;-144.73;100.00;54407.69;5082808;28;20024;-73
2023/07/18 00:58:53;;;;;;;11.77;4.43;;;;;;;-144.73;100.00;54420.00;5047120;28;20032;-73
2023/07/18 01:01:18;;;;;;;12.27;4.88;;;;;;;-144.73;100.00;54407.69;5075433;28;20021;-73
2023/07/18 01:03:44;;;;;;;12.05;4.93;;;;;;;-144.73;100.00;54436.44;5064764;28;20039;-73
2023/07/18 01:06:09;;;;;;;20.02;5.15;;;;;;;-144.73;100.00;54415.91;5056305;28;20032;-73
2023/07/18 01:08:35;;;;;;;19.30;5.60;;;;;;;-144.73;100.00;54465.16;5062108;28;20032;-73
2023/07/18 01:11:01;;;;;;;20.08;5.95;;;;;;;-144.73;100.00;54428.22;5057781;28;20021;-73
2023/07/18 01:13:27;;;;;;;16.90;5.20;;;;;;;-144.73;100.00;54370.75;5066082;28;20027;-73
2023/07/18 01:15:52;;;;;;;18.02;5.93;;;;;;;-144.73;100.00;54407.69;5065854;28;20062;-73
2023/07/18 01:18:18;;;;;;;13.57;6.43;;;;;;;-144.73;100.00;54415.91;5053633;28;20530;-73
2023/07/18 01:20:45;;;;;;;28.58;6.30;;;;;;;-144.73;100.00;54440.53;5062459;28;20996;-73
2023/07/18 01:23:12;;;;;;;17.52;6.78;;;;;;;-144.73;100.00;54432.31;5057806;28;20089;-73
2023/07/18 01:25:37;;;;;;;19.50;6.10;;;;;;;-144.73;100.00;54415.91;5056541;28;20029;-73
2023/07/18 01:28:03;;;;;;;15.98;6.20;;;;;;;-144.73;100.00;54387.19;5071941;28;20112;-74
2023/07/18 01:30:29;;;;;;;19.42;7.03;;;;;;;-144.73;100.00;54436.44;5078241;28;20020;-73
2023/07/18 01:32:56;;;;;;;24.95;7.25;;;;;;;-144.73;100.00;54415.91;5087611;28;20120;-73
2023/07/18 01:35:24;;;;;;;12.95;5.75;;;;;;;-144.73;100.00;54432.31;5067846;28;20514;-73
2023/07/18 01:37:51;;;;;;;22.10;7.82;;;;;;;-144.73;100.00;54391.28;5053567;28;20055;-74
2023/07/18 01:40:22;;;;;;;24.40;7.53;;;;;;;-144.73;100.00;54428.22;5065930;28;20024;-74
2023/07/18 01:42:52;;;;;;;15.40;7.17;;;;;;;-144.73;100.00;54411.81;5059291;28;20029;-73
2023/07/18 01:45:20;;;;;;;17.60;7.38;;;;;;;-144.73;100.00;54395.38;5053493;28;20362;-73
2023/07/18 01:47:46;;;;;;;21.30;7.20;;;;;;;-144.73;100.00;54395.38;5076360;28;20031;-73
2023/07/18 01:50:12;;;;;;;19.48;6.85;;;;;;;-144.73;100.00;54420.00;5055927;28;20048;-73
2023/07/18 01:52:38;;;;;;;16.35;6.93;;;;;;;-144.73;100.00;54473.38;5058894;28;20071;-74
2023/07/18 01:55:04;;;;;;;21.33;8.35;;;;;;;-144.73;100.00;54407.69;5061079;28;20024;-73
2023/07/18 01:57:32;;;;;;;18.08;8.23;;;;;;;-144.73;100.00;54411.81;5077986;28;20102;-73
2023/07/18 02:00:03;;;;;;;27.98;8.63;;;;;;;-144.73;100.00;54391.28;5088019;28;20059;-74
2023/07/18 02:02:28;;;;;;;18.85;7.68;;;;;;;-144.73;100.00;54428.22;5066066;28;20032;-73
2023/07/18 02:04:56;;;;;;;27.20;8.85;;;;;;;-144.73;100.00;54452.84;5082984;28;20024;-73
2023/07/18 02:07:21;;;;;;;19.95;8.48;;;;;;;-144.73;100.00;54428.22;5063469;28;20056;-73
2023/07/18 02:09:48;;;;;;;19.02;8.48;;;;;;;-144.73;100.00;54444.66;5083300;28;20051;-73
2023/07/18 02:12:14;;;;;;;37.42;9.80;;;;;;;-144.73;100.00;54409.75;5071244;28;20032;-73
2023/07/18 02:14:39;;;;;;;23.65;9.95;;;;;;;-144.73;100.00;54424.13;5068117;28;20093;-74
2023/07/18 02:17:05;;;;;;;26.17;10.13;;;;;;;-144.73;100.00;54407.69;5074506;28;20103;-74
2023/07/18 02:19:30;;;;;;;20.42;9.57;;;;;;;-144.73;100.00;54378.97;5084104;28;20052;-74
2023/07/18 02:21:56;;;;;;;28.90;9.60;;;;;;;-144.73;100.00;54413.84;5092020;28;20118;-74
2023/07/18 02:24:22;;;;;;;26.83;9.75;;;;;;;-144.73;100.00;54411.81;5084107;28;20040;-74
2023/07/18 02:26:47;;;;;;;30.05;11.63;;;;;;;-144.73;100.00;54411.81;5071598;28;20506;-74
2023/07/18 02:29:13;;;;;;;22.58;9.88;;;;;;;-144.73;100.00;54424.13;5056613;28;20024;-73
2023/07/18 02:31:39;;;;;;;33.75;11.32;;;;;;;-144.73;100.00;54420.00;5065826;28;20012;-73
2023/07/18 02:34:05;;;;;;;19.27;10.07;;;;;;;-144.73;100.00;54442.59;5067931;28;20035;-74
2023/07/18 02:36:32;;;;;;;29.13;10.90;;;;;;;-144.73;100.00;54424.13;5081949;28;20058;-73
2023/07/18 02:38:59;;;;;;;28.48;11.45;;;;;;;-144.73;100.00;54436.44;5090182;28;20139;-74
2023/07/18 02:41:24;;;;;;;27.20;10.88;;;;;;;-144.73;100.00;54475.44;5071283;28;20034;-74
2023/07/18 02:43:49;;;;;;;26.73;11.05;;;;;;;-144.73;100.00;54420.00;5072725;28;20036;-74
2023/07/18 02:46:15;;;;;;;29.55;11.00;;;;;;;-144.73;100.00;54452.84;5074009;28;20134;-74
2023/07/18 02:48:41;;;;;;;28.58;12.15;;;;;;;-144.73;100.00;54399.50;5073941;28;20033;-74
2023/07/18 02:51:06;;;;;;;26.30;11.38;;;;;;;-144.73;100.00;54438.50;5086700;28;20028;-74
2023/07/18 02:53:32;;;;;;;24.25;11.90;;;;;;;-144.73;100.00;54411.81;5081351;28;20032;-74
2023/07/18 02:55:58;;;;;;;26.80;12.68;;;;;;;-144.73;100.00;54395.38;5060709;28;20104;-74
2023/07/18 02:58:23;;;;;;;28.95;10.30;;;;;;;-144.73;100.00;54424.13;5065910;28;20097;-73
2023/07/18 03:00:51;;;;;;;31.20;12.57;;;;;;;-144.73;100.00;54413.84;5069188;28;20031;-73
2023/07/18 03:03:16;;;;;;;30.25;12.27;;;;;;;-144.73;100.00;54432.31;5078394;28;20038;-73
2023/07/18 03:05:42;;;;;;;32.08;11.93;;;;;;;-144.73;100.00;54411.81;5071187;28;20019;-73
2023/07/18 03:08:07;;;;;;;25.73;12.00;;;;;;;-144.73;100.00;54428.22;5066984;28;20525;-74
2023/07/18 03:10:32;;;;;;;29.73;12.10;;;;;;;-144.73;100.00;54428.22;5057276;28;20027;-74
2023/07/18 03:12:58;;;;;;;37.97;14.30;;;;;;;-144.73;100.00;54428.22;5084610;28;20024;-73
2023/07/18 03:15:23;;;;;;;31.08;11.90;;;;;;;-144.73;100.00;54424.13;5066133;28;20035;-74
2023/07/18 03:17:48;;;;;;;28.13;11.55;;;;;;;-144.73;100.00;54432.31;5078135;28;20044;-74
2023/07/18 03:20:19;;;;;;;38.72;12.02;;;;;;;-144.73;100.00;54434.38;5079961;28;20032;-73
2023/07/18 03:22:48;;;;;;;28.05;13.48;;;;;;;-144.73;100.00;54387.19;5087530;28;20131;-73
2023/07/18 03:25:14;;;;;;;33.72;13.50;;;;;;;-144.73;100.00;54452.84;5072174;28;20024;-73
2023/07/18 03:27:40;;;;;;;35.17;12.88;;;;;;;-144.73;100.00;54420.00;5061694;28;20048;-74
2023/07/18 03:30:07;;;;;;;33.78;13.57;;;;;;;-144.73;100.00;54428.22;5090668;28;20027;-74
2023/07/18 03:32:33;;;;;;;35.42;13.30;;;;;;;-144.73;100.00;54407.69;5077518;28;20089;-73
2023/07/18 03:34:59;;;;;;;35.63;13.77;;;;;;;-144.73;100.00;54411.81;5062308;28;20025;-73
2023/07/18 03:37:25;;;;;;;40.22;15.27;;;;;;;-144.73;100.00;54469.28;5054521;28;20103;-73
2023/07/18 03:39:50;;;;;;;39.72;15.35;;;;;;;-144.73;100.00;54432.31;5064965;28;20039;-74
2023/07/18 03:42:16;;;;;;;40.08;14.52;;;;;;;-144.73;100.00;54428.22;5064359;28;20020;-73
2023/07/18 03:44:41;;;;;;;27.35;13.85;;;;;;;-144.73;100.00;54461.06;5066993;28;20032;-74
2023/07/18 03:47:07;;;;;;;36.67;14.07;;;;;;;-144.73;100.00;54448.75;5065807;28;20026;-73
2023/07/18 03:49:32;;;;;;;40.83;15.35;;;;;;;-144.73;100.00;54452.84;5062331;28;20041;-74
2023/07/18 03:51:58;;;;;;;34.13;13.63;;;;;;;-144.73;100.00;54428.22;5073638;28;20430;-73
2023/07/18 03:54:23;;;;;;;34.22;13.05;;;;;;;-144.73;100.00;54415.91;5070084;28;20058;-73
2023/07/18 03:56:48;;;;;;;38.90;14.45;;;;;;;-144.73;100.00;54452.84;5053372;28;20107;-74
2023/07/18 03:59:13;;;;;;;38.88;14.27;;;;;;;-144.73;100.00;54454.91;5065318;28;20115;-73
2023/07/18 04:01:39;;;;;;;33.33;13.05;;;;;;;-144.73;100.00;54399.50;5062565;28;20103;-73
2023/07/18 04:04:04;;;;;;;39.85;14.45;;;;;;;-144.73;100.00;54440.53;5070967;28;20039;-73
2023/07/18 04:06:30;;;;;;;32.20;13.57;;;;;;;-144.73;100.00;54436.44;5080457;28;20016;-73
2023/07/18 04:08:55;;;;;;;24.33;12.85;;;;;;;-144.73;100.00;54424.13;5061989;28;20082;-74
2023/07/18 04:11:21;;;;;;;29.40;12.98;;;;;;;-144.73;100.00;54444.66;5052875;28;20383;-74
2023/07/18 04:13:46;;;;;;;28.65;13.20;;;;;;;-144.73;100.00;54483.66;5076026;28;20093;-74
2023/07/18 04:16:12;;;;;;;37.92;13.20;;;;;;;-144.73;100.00;54428.22;5072761;28;20020;-74
2023/07/18 04:18:37;;;;;;;30.58;13.45;;;;;;;-144.73;100.00;54436.44;5081705;28;20043;-74
2023/07/18 04:21:03;;;;;;;29.33;12.48;;;;;;;-144.73;100.00;54428.22;5065090;28;20034;-74
2023/07/18 04:23:29;;;;;;;30.60;12.70;;;;;;;-144.73;100.00;54473.38;5088502;28;20562;-74
2023/07/18 04:25:58;;;;;;;35.35;13.30;;;;;;;-144.73;100.00;54438.50;5072119;28;20112;-74
2023/07/18 04:28:27;;;;;;;34.17;13.68;;;;;;;-144.73;100.00;54428.22;5062283;28;20124;-74
2023/07/18 04:30:52;;;;;;;32.17;12.52;;;;;;;-144.73;100.00;54413.84;5070705;28;20030;-74
2023/07/18 04:33:18;;;;;;;33.42;11.60;;;;;;;-144.73;100.00;54469.28;5060452;28;20036;-74
2023/07/18 04:35:45;;;;;;;29.23;11.65;;;;;;;-144.73;100.00;54407.69;5052129;28;20370;-74
2023/07/18 04:38:11;;;;;;;30.10;11.25;;;;;;;-144.73;100.00;54432.31;5036243;28;20119;-74
2023/07/18 04:40:36;;;;;;;27.17;11.70;;;;;;;-144.73;100.00;54473.38;5069156;28;20080;-74
2023/07/18 04:43:02;;;;;;;27.55;10.20;;;;;;;-144.73;100.00;54407.69;5074991;28;20028;-74
2023/07/18 04:45:27;;;;;;;24.83;11.07;;;;;;;-144.73;100.00;54420.00;5062156;28;20093;-74
2023/07/18 04:47:52;;;;;;;28.65;11.50;;;;;;;-144.73;100.00;54461.06;5059769;28;20499;-74
2023/07/18 04:50:18;;;;;;;23.73;10.80;;;;;;;-144.73;100.00;54444.66;5061398;28;20020;-73
2023/07/18 04:52:43;;;;;;;30.25;10.95;;;;;;;-144.73;100.00;54415.91;5045178;28;20070;-74
2023/07/18 04:55:10;;;;;;;25.30;10.05;;;;;;;-144.73;100.00;54440.53;5063087;28;20043;-74
2023/07/18 04:57:35;;;;;;;31.83;10.02;;;;;;;-144.73;100.00;54407.69;5046478;28;20098;-74
2023/07/18 05:00:01;;;;;;;29.98;10.38;;;;;;;-144.73;100.00;54436.44;5089913;28;20048;-74
2023/07/18 05:02:26;;;;;;;31.00;10.40;;;;;;;-144.73;100.00;54426.16;5067137;28;20023;-74
2023/07/18 05:04:51;;;;;;;33.33;10.00;;;;;;;-144.73;100.00;54422.06;5060423;28;20028;-75
2023/07/18 05:07:17;;;;;;;31.25;9.75;;;;;;;-144.73;100.00;54436.44;5051908;28;20497;-74
2023/07/18 05:09:42;;;;;;;30.45;9.77;;;;;;;-144.73;100.00;54436.44;5062290;28;20420;-74
2023/07/18 05:12:07;;;;;;;24.98;8.68;;;;;;;-144.73;100.00;54415.91;5058104;28;20032;-75
2023/07/18 05:14:33;;;;;;;26.33;9.30;;;;;;;-144.73;100.00;54461.06;5083595;28;20036;-74
2023/07/18 05:16:58;;;;;;;27.55;8.95;;;;;;;-144.73;100.00;54448.75;5064539;28;20126;-74
2023/07/18 05:19:24;;;;;;;38.75;9.80;;;;;;;-144.73;100.00;54448.75;5062340;28;20041;-75
2023/07/18 05:21:50;;;;;;;26.35;9.30;;;;;;;-144.73;100.00;54452.84;5062555;28;20020;-74
2023/07/18 05:24:17;;;;;;;31.60;9.88;;;;;;;-144.73;100.00;54415.91;5080880;28;20047;-74
2023/07/18 05:26:42;;;;;;;27.15;9.02;;;;;;;-144.73;100.00;54428.22;5060834;28;20024;-74
2023/07/18 05:29:08;;;;;;;21.55;9.10;;;;;;;-144.73;100.00;54428.22;5066385;28;20032;-74
2023/07/18 05:31:33;;;;;;;30.42;9.18;;;;;;;-144.73;100.00;54448.75;5079948;28;20028;-74
2023/07/18 05:33:59;;;;;;;34.20;9.02;;;;;;;-144.73;100.00;54424.13;5061169;28;20093;-74
2023/07/18 05:36:25;;;;;;;26.92;8.27;;;;;;;-144.73;100.00;54485.69;5073240;28;20032;-75
2023/07/18 05:38:51;;;;;;;26.17;8.48;;;;;;;-144.73;100.00;54442.59;5056792;28;20037;-74
2023/07/18 05:41:16;;;;;;;29.17;9.57;;;;;;;-144.73;100.00;54440.53;5057751;28;20036;-74
2023/07/18 05:43:42;;;;;;;19.25;8.10;;;;;;;-144.73;100.00;54407.69;5066846;28;20036;-74
2023/07/18 05:46:07;;;;;;;28.15;8.50;;;;;;;-144.73;100.00;54415.91;5060313;28;20043;-75
2023/07/18 05:48:33;;;;;;;33.92;8.38;;;;;;;-144.73;100.00;54428.22;5072386;28;20039;-74
2023/07/18 05:51:00;;;;;;;21.80;8.15;;;;;;;-144.73;100.00;54440.53;5069411;28;20052;-74
2023/07/18 05:53:25;;;;;;;30.73;8.30;;;;;;;-144.73;100.00;54409.75;5071474;28;20035;-74
2023/07/18 05:55:52;;;;;;;26.92;7.90;;;;;;;-144.73;100.00;54448.75;5073694;28;20027;-74
2023/07/18 05:58:18;;;;;;;29.75;7.40;;;;;;;-144.73;100.00;54452.84;5060689;28;20166;-75
2023/07/18 06:00:43;;;;;;;29.02;9.05;;;;;;;-144.73;100.00;54452.84;5059688;28;20084;-75
2023/07/18 06:03:09;;;;;;;25.08;7.03;;;;;;;-144.73;100.00;54428.22;5089598;28;20028;-74
2023/07/18 06:05:34;;;;;;;29.90;8.25;;;;;;;-144.73;100.00;54436.44;5048899;28;20048;-76
2023/07/18 06:08:00;;;;;;;23.42;7.72;;;;;;;-144.73;100.00;54424.13;5071863;28;20032;-75
2023/07/18 06:10:25;;;;;;;21.90;7.57;;;;;;;-144.73;100.00;54440.53;5058964;28;20415;-74
2023/07/18 06:12:50;;;;;;;27.05;7.50;;;;;;;-144.73;100.00;54407.69;5059794;28;20043;-75
2023/07/18 06:15:16;;;;;;;22.45;7.03;;;;;;;-144.73;100.00;54413.84;5075910;28;20077;-75
2023/07/18 06:17:41;;;;;;;26.88;7.50;;;;;;;-144.73;100.00;54473.38;5064267;28;20061;-75
2023/07/18 06:20:12;;;;;;;26.73;7.18;;;;;;;-144.73;100.00;54444.66;5062511;28;20555;-75
2023/07/18 06:22:37;;;;;;;22.85;7.18;;;;;;;-144.73;100.00;54452.84;5081316;28;20028;-75
2023/07/18 06:25:03;;;;;;;27.10;6.97;;;;;;;-144.73;100.00;54415.91;5064308;28;20018;-76
2023/07/18 06:27:28;;;;;;;29.42;6.63;;;;;;;-144.73;100.00;54424.13;5066298;28;20034;-74
2023/07/18 06:29:55;;;;;;;26.73;7.35;;;;;;;-144.73;100.00;54432.31;5067417;28;20106;-74
2023/07/18 06:32:21;;;;;;;26.60;7.25;;;;;;;-144.73;100.00;54456.97;5074371;28;20013;-73
2023/07/18 06:34:48;;;;;;;16.55;5.55;;;;;;;-144.73;100.00;54415.91;5090246;28;20016;-74
2023/07/18 06:37:13;;;;;;;19.75;6.15;;;;;;;-144.73;100.00;54428.22;5071154;28;20051;-74
2023/07/18 06:39:40;;;;;;;25.08;7.22;;;;;;;-144.73;100.00;54430.28;5067747;28;20022;-74
2023/07/18 06:42:08;;;;;;;26.58;6.53;;;;;;;-144.73;100.00;54465.16;5061210;28;20024;-74
2023/07/18 06:44:34;;;;;;;26.55;6.13;;;;;;;-144.73;100.00;54420.00;5061961;28;20034;-74
2023/07/18 06:46:59;;;;;;;30.08;5.85;;;;;;;-144.73;100.00;54432.31;5058564;28;20099;-75
2023/07/18 06:49:25;;;;;;;30.05;6.85;;;;;;;-144.73;100.00;54434.38;5085827;28;20036;-74
2023/07/18 06:51:51;;;;;;;28.50;6.18;;;;;;;-144.73;100.00;54387.19;5071461;28;20059;-74
2023/07/18 06:54:17;;;;;;;20.95;5.90;;;;;;;-144.73;100.00;54436.44;5070227;28;20036;-75
2023/07/18 06:56:44;;;;;;;30.38;7.78;;;;;;;-144.73;100.00;54432.31;5069389;28;20096;-75
2023/07/18 06:59:10;;;;;;;21.50;6.55;;;;;;;-144.73;100.00;54420.00;5065707;28;20033;-76
2023/07/18 07:01:35;;;;;;;28.77;7.30;;;;;;;-144.73;100.00;54415.91;5064122;28;20071;-76
2023/07/18 07:04:01;;;;;;;24.90;6.65;;;;;;;-144.73;100.00;54440.53;5068327;28;20035;-76
2023/07/18 07:06:27;;;;;;;27.15;6.50;;;;;;;-144.73;100.00;54448.75;5063416;28;20013;-76
2023/07/18 07:08:52;;;;;;;23.65;6.22;;;;;;;-144.73;100.00;54440.53;5067887;28;20028;-76
2023/07/18 07:11:18;;;;;;;23.25;6.35;;;;;;;-144.73;100.00;54475.44;5073884;28;20016;-76
2023/07/18 07:13:44;;;;;;;23.83;6.50;;;;;;;-144.73;100.00;54454.91;5089422;28;20087;-75
2023/07/18 07:16:10;;;;;;;27.20;6.97;;;;;;;-144.73;100.00;54428.22;5063114;28;20036;-76
2023/07/18 07:18:36;;;;;;;21.13;6.43;;;;;;;-144.73;100.00;54395.38;5060602;28;20115;-76
2023/07/18 07:21:02;;;;;;;21.15;7.03;;;;;;;-144.73;100.00;54465.16;5072390;28;20099;-75
2023/07/18 07:23:30;;;;;;;31.85;7.53;;;;;;;-144.73;100.00;54444.66;5092835;28;20024;-75
2023/07/18 07:25:55;;;;;;;29.95;6.60;;;;;;;-144.73;100.00;54415.91;5074503;28;20023;-76
2023/07/18 07:28:23;;;;;;;21.77;6.57;;;;;;;-144.73;100.00;54452.84;5068515;28;20034;-75
2023/07/18 07:30:52;;;;;;;32.15;6.40;;;;;;;-144.73;100.00;54452.84;5086493;28;20052;-75
2023/07/18 07:33:19;;;;;;;21.17;6.47;;;;;;;-144.73;100.00;54393.34;5065091;28;20089;-75
2023/07/18 07:35:45;;;;;;;28.52;6.57;;;;;;;-144.73;100.00;54354.34;5068028;28;20048;-75
2023/07/18 07:38:10;;;;;;;20.48;6.53;;;;;;;-144.73;100.00;54387.19;5063439;28;20041;-75
2023/07/18 07:40:36;;;;;;;15.88;5.53;;;;;;;-144.73;100.00;54420.00;5065776;28;20115;-74
2023/07/18 07:43:02;;;;;;;24.15;5.70;;;;;;;-144.73;100.00;54383.06;5056918;28;20028;-75
2023/07/18 07:45:28;;;;;;;17.52;5.55;;;;;;;-144.73;100.00;54456.97;5065597;28;20103;-74
2023/07/18 07:47:53;;;;;;;21.20;5.30;;;;;;;-144.73;100.00;54413.84;5058485;28;20056;-75
2023/07/18 07:50:19;;;;;;;15.90;4.97;;;;;;;-144.73;100.00;54407.69;5059017;28;20093;-75
2023/07/18 07:52:45;;;;;;;14.82;4.70;;;;;;;-144.73;100.00;54387.19;5088355;28;20121;-75
2023/07/18 07:55:11;;;;;;;22.02;5.80;;;;;;;-144.73;100.00;54387.19;5087490;28;20020;-75
2023/07/18 07:57:37;;;;;;;13.13;4.60;;;;;;;-144.73;100.00;54346.13;5071042;28;20036;-76
2023/07/18 08:00:03;;;;;;;14.77;3.88;;;;;;;-144.73;100.00;54424.13;5068134;28;20016;-75
2023/07/18 08:02:28;;;;;;;12.32;4.88;;;;;;;-144.73;100.00;54391.28;5072961;28;20012;-74
2023/07/18 08:04:54;;;;;;;25.30;5.25;;;;;;;-144.73;100.00;54391.28;5066960;28;20028;-74
2023/07/18 08:07:19;;;;;;;15.70;5.38;;;;;;;-144.73;100.00;54370.75;5035064;28;20094;-74
2023/07/18 08:09:45;;;;;;;13.30;4.45;;;;;;;-144.73;100.00;54378.97;5066081;28;20028;-74
2023/07/18 08:12:12;;;;;;;19.17;5.88;;;;;;;-144.73;100.00;54395.38;5057132;28;20077;-74
2023/07/18 08:14:38;;;;;;;17.00;4.28;;;;;;;-144.73;100.00;54399.50;5066804;28;20044;-74
2023/07/18 08:17:04;;;;;;;20.20;4.20;;;;;;;-144.73;100.00;54391.28;5069026;28;20060;-74
2023/07/18 08:19:32;;;;;;;19.17;4.28;;;;;;;-144.73;100.00;54411.81;5062825;28;20036;-74
2023/07/18 08:21:58;;;;;;;14.95;4.03;;;;;;;-144.73;100.00;54407.69;5078701;28;20027;-74
2023/07/18 08:24:24;;;;;;;18.75;4.43;;;;;;;-144.73;100.00;54407.69;5063936;28;20029;-74
2023/07/18 08:26:49;;;;;;;21.38;4.07;;;;;;;-144.73;100.00;54350.22;5059230;28;20019;-74
2023/07/18 08:29:14;;;;;;;13.10;4.50;;;;;;;-144.73;100.00;54325.59;5084625;28;20028;-75
2023/07/18 08:31:41;;;;;;;10.80;3.60;;;;;;;-144.73;100.00;54370.75;5068695;28;20389;-74
2023/07/18 08:34:06;;;;;;;11.43;3.28;;;;;;;-144.73;100.00;54337.91;5067686;28;20032;-75
2023/07/18 08:36:35;;;;;;;12.18;2.88;;;;;;;-144.73;98.64;54428.22;5064012;28;20139;-74
2023/07/18 08:39:03;;;;;;;31.60;4.00;;;;;;;-144.73;99.55;54387.19;5062913;28;20075;-75
2023/07/18 08:41:28;;;;;;;13.52;3.50;;;;;;;-144.73;98.93;54362.53;5068451;28;20032;-74
2023/07/18 08:43:55;;;;;;;11.93;3.90;;;;;;;-144.73;94.26;54309.19;5061264;28;20135;-74
2023/07/18 08:46:21;;;;;;;18.98;3.47;;;;;;;-144.73;94.65;54395.38;5062599;28;20025;-74
2023/07/18 08:48:48;;;;;;;10.35;3.38;;;;;;;-144.73;92.61;54368.69;5065133;28;20028;-75
2023/07/18 08:51:14;;;;;;;8.93;2.65;;;;;;;-144.73;86.33;54358.44;5067810;28;20016;-75
2023/07/18 08:53:40;;;;;;;9.90;3.55;;;;;;;-144.73;86.73;54383.06;5072744;28;20024;-74
2023/07/18 08:56:08;;;;;;;8.93;2.42;;;;;;;-144.73;87.73;54374.84;5065713;28;20039;-74
2023/07/18 08:58:36;;;;;;;14.70;3.15;;;;;;;-144.73;81.12;54374.84;5072064;28;20115;-74
2023/07/18 09:01:02;;;;;;;10.60;3.60;;;;;;;-144.73;82.65;54385.13;5070917;28;20036;-74
2023/07/18 09:03:27;;;;;;;5.75;2.42;;;;;;;-144.73;79.63;54346.13;5061706;28;20036;-74
2023/07/18 09:05:53;;;;;;;10.50;2.67;;;;;;;-144.73;79.58;54352.28;5066771;28;20356;-73
2023/07/18 09:08:18;;;;;;;8.27;2.90;;;;;;;-144.73;81.94;54374.84;5071008;28;20028;-73
2023/07/18 09:10:45;;;;;;;7.57;3.15;;;;;;;-144.73;78.21;54362.53;5081157;28;20031;-74
2023/07/18 09:13:11;;;;;;;12.85;2.90;;;;;;;-144.73;75.26;54389.22;5074163;28;20020;-75
2023/07/18 09:15:37;;;;;;;10.43;2.72;;;;;;;-144.73;80.97;54374.84;5084866;28;20124;-74
2023/07/18 09:18:09;;;;;;;11.27;2.83;;;;;;;-144.73;79.34;54372.81;5065961;28;20048;-74
2023/07/18 09:20:34;;;;;;;;;;;;;;;-144.73;79.37;54344.06;5060923;28;20044;-74
2023/07/18 09:23:04;;;;;;;20.92;3.30;;;;;;;-144.73;78.56;54366.66;5069346;28;20000;-74
2023/07/18 09:25:30;;;;;;;9.23;2.63;;;;;;;-144.73;75.74;54358.44;5072063;28;20029;-74
2023/07/18 09:27:57;;;;;;;14.15;2.45;;;;;;;-144.73;75.03;54411.81;5083477;28;20032;-74
2023/07/18 09:30:36;;;;;;;10.32;2.95;;;;;;;-144.73;75.38;54350.22;5065162;28;20035;-74
2023/07/18 09:33:06;;;;;;;11.65;2.78;;;;;;;-144.73;76.52;54370.75;5070722;28;20067;-74
2023/07/18 09:35:36;;;;;;;7.30;2.33;;;;;;;-144.73;75.87;54391.28;5083178;28;20030;-75
2023/07/18 09:38:03;;;;;;;7.20;2.40;;;;;;;-144.73;70.16;54366.66;5069699;28;20065;-74
2023/07/18 09:40:28;;;;;;;9.45;2.65;;;;;;;-144.73;69.33;54358.44;5069805;28;20094;-73
2023/07/18 09:42:55;;;;;;;7.47;2.25;;;;;;;-144.73;74.44;54378.97;5089636;28;20493;-72
2023/07/18 09:45:20;;;;;;;13.40;3.25;;;;;;;-144.73;70.06;54366.66;5069174;28;20494;-75
2023/07/18 09:47:46;;;;;;;6.85;2.20;;;;;;;-144.73;69.34;54387.19;5071194;28;20044;-74
2023/07/18 09:50:14;;;;;;;9.88;2.15;;;;;;;-144.73;64.43;54350.22;5075048;28;20039;-73
2023/07/18 09:52:51;;;;;;;6.60;2.10;;;;;;;-144.73;63.54;54368.69;5087965;28;20107;-73
2023/07/18 09:55:27;;;;;;;10.15;2.53;;;;;;;-144.73;67.03;54346.13;5065861;28;20023;-74
2023/07/18 09:57:55;;;;;;;6.38;2.25;;;;;;;-144.73;67.58;54387.19;5071841;28;20116;-73
2023/07/18 10:00:22;;;;;;;7.32;2.05;;;;;;;-144.73;68.56;54348.19;5090850;28;20031;-73
2023/07/18 10:02:49;;;;;;;7.43;2.20;;;;;;;-144.73;67.69;54354.34;5085013;28;20035;-73
2023/07/18 10:05:15;;;;;;;8.93;2.38;;;;;;;-144.73;69.90;54354.34;5094523;28;20059;-73
2023/07/18 10:07:42;;;;;;;8.05;2.20;;;;;;;-144.73;67.22;54387.19;5071902;28;20036;-73
2023/07/18 10:10:09;;;;;;;9.90;3.30;;;;;;;-144.73;66.18;54370.75;5071148;28;20016;-73
2023/07/18 10:12:55;;;;;;;8.00;3.47;;;;;;;-144.73;65.81;54327.66;5066848;28;20028;-73
2023/07/18 10:15:21;;;;;;;10.13;2.33;;;;;;;-144.73;62.88;54399.50;5067223;28;20027;-73
2023/07/18 10:17:52;;;;;;;9.60;2.60;;;;;;;-144.73;66.90;54395.38;5070221;28;20042;-73
2023/07/18 10:20:19;;;;;;;11.13;2.40;;;;;;;-144.73;66.47;54346.13;5066144;28;20028;-73
2023/07/18 10:22:46;;;;;;;7.90;2.58;;;;;;;-144.73;63.59;54395.38;5067725;28;20035;-73
2023/07/18 10:25:12;;;;;;;6.80;2.55;;;;;;;-144.73;60.78;54313.28;5063198;28;20498;-74
2023/07/18 10:27:40;;;;;;;10.90;2.75;;;;;;;-144.73;60.76;54352.28;5081479;28;20032;-73
2023/07/18 10:30:17;;;;;;;3.90;1.83;;;;;;;-144.73;58.84;54370.75;5065144;28;20030;-72
2023/07/18 10:32:54;;;;;;;5.03;2.13;;;;;;;-144.73;56.21;54364.59;5086178;28;20033;-72
2023/07/18 10:35:22;;;;;;;7.85;1.95;;;;;;;-144.73;58.83;54354.34;5062775;28;20081;-73
2023/07/18 10:37:53;;;;;;;7.80;2.30;;;;;;;-144.73;59.74;54383.06;5078870;28;20111;-73
2023/07/18 10:40:30;;;;;;;9.55;1.92;;;;;;;-144.73;59.13;54374.84;5085773;28;20020;-72
2023/07/18 10:42:55;;;;;;;6.00;2.20;;;;;;;-144.73;57.54;54325.59;5068258;28;20036;-72
2023/07/18 10:45:21;;;;;;;5.65;1.95;;;;;;;-144.73;55.16;54391.28;5084960;28;20024;-73
2023/07/18 10:47:46;;;;;;;6.40;1.73;;;;;;;-144.73;52.78;54321.50;5071985;28;20024;-73
2023/07/18 10:50:13;;;;;;;5.68;2.10;;;;;;;-144.73;53.62;54331.75;5072888;28;20032;-73
2023/07/18 10:52:40;;;;;;;6.57;1.80;;;;;;;-144.73;53.99;54358.44;5072983;28;20133;-72
2023/07/18 10:55:06;;;;;;;6.38;2.15;;;;;;;-144.73;54.53;54346.13;5075319;28;20027;-73
2023/07/18 10:57:34;;;;;;;3.90;1.50;;;;;;;-144.73;53.76;54352.28;5082766;28;20037;-73